createdAt,value
2018-09-27T00:02:03.159Z,3.43
2018-09-27T00:04:31.770Z,3.90
2018-09-27T00:07:00.429Z,3.47
2018-09-27T00:09:29.000Z,4.03
2018-09-27T00:11:57.657Z,3.80
2018-09-27T00:14:26.218Z,4.00
2018-09-27T00:16:54.902Z,3.80
2018-09-27T00:19:23.537Z,3.27
2018-09-27T00:21:52.104Z,3.60
2018-09-27T00:24:22.683Z,3.50
2018-09-27T00:26:51.294Z,3.80
2018-09-27T00:29:19.685Z,3.63
2018-09-27T00:31:48.085Z,3.70
2018-09-27T00:34:16.470Z,3.93
2018-09-27T00:36:45.187Z,3.63
2018-09-27T00:39:14.364Z,4.27
2018-09-27T00:41:42.820Z,4.00
2018-09-27T00:44:11.205Z,3.93
2018-09-27T00:46:39.583Z,3.70
2018-09-27T00:49:09.003Z,4.17
2018-09-27T00:51:37.597Z,4.50
2018-09-27T00:54:06.119Z,4.70
2018-09-27T00:56:34.650Z,4.93
2018-09-27T00:59:03.957Z,4.67
2018-09-27T01:01:32.320Z,4.83
2018-09-27T01:04:00.720Z,4.63
2018-09-27T01:06:29.511Z,4.30
2018-09-27T01:08:57.899Z,4.80
2018-09-27T01:11:27.268Z,4.43
2018-09-27T01:13:55.563Z,4.50
2018-09-27T01:16:23.938Z,4.23
2018-09-27T01:18:52.351Z,4.80
2018-09-27T01:21:20.716Z,4.40
2018-09-27T01:23:49.123Z,4.33
2018-09-27T01:26:18.485Z,4.30
2018-09-27T01:28:46.844Z,4.47
2018-09-27T01:31:15.396Z,4.33
2018-09-27T01:33:43.723Z,4.47
2018-09-27T01:36:12.141Z,4.37
2018-09-27T01:38:40.471Z,4.50
2018-09-27T01:41:08.973Z,4.27
2018-09-27T01:43:37.542Z,4.50
2018-09-27T01:46:06.840Z,3.87
2018-09-27T01:48:35.248Z,4.00
2018-09-27T01:51:05.579Z,4.43
2018-09-27T01:53:34.003Z,4.70
2018-09-27T01:56:02.408Z,4.17
2018-09-27T01:58:30.800Z,4.10
2018-09-27T02:00:59.289Z,4.70
2018-09-27T02:03:27.664Z,4.50
2018-09-27T02:05:56.005Z,4.60
2018-09-27T02:08:24.312Z,4.10
2018-09-27T02:10:52.698Z,4.30
2018-09-27T02:13:22.073Z,4.83
2018-09-27T02:15:50.596Z,4.10
2018-09-27T02:18:18.985Z,4.23
2018-09-27T02:20:48.391Z,4.67
2018-09-27T02:23:16.713Z,4.73
2018-09-27T02:25:45.104Z,4.40
2018-09-27T02:28:13.572Z,4.30
2018-09-27T02:30:41.977Z,4.60
2018-09-27T02:33:10.343Z,4.30
2018-09-27T02:35:38.741Z,5.27
2018-09-27T02:38:07.131Z,4.77
2018-09-27T02:40:35.573Z,4.53
2018-09-27T02:43:04.030Z,4.50
2018-09-27T02:45:33.339Z,4.37
2018-09-27T02:48:01.636Z,4.17
2018-09-27T02:50:30.016Z,4.70
2018-09-27T02:52:58.410Z,4.60
2018-09-27T02:55:27.880Z,4.37
2018-09-27T02:57:56.219Z,4.90
2018-09-27T03:00:24.713Z,4.40
2018-09-27T03:02:53.154Z,4.63
2018-09-27T03:05:21.651Z,4.73
2018-09-27T03:07:50.106Z,4.50
2018-09-27T03:10:18.504Z,4.37
2018-09-27T03:12:46.994Z,4.63
2018-09-27T03:15:15.781Z,4.70
2018-09-27T03:17:44.243Z,4.33
2018-09-27T03:20:12.741Z,4.30
2018-09-27T03:22:41.276Z,5.07
2018-09-27T03:25:09.594Z,5.00
2018-09-27T03:27:38.244Z,5.00
2018-09-27T03:30:06.641Z,4.60
2018-09-27T03:32:34.956Z,4.73
2018-09-27T03:35:03.568Z,4.60
2018-09-27T03:37:31.977Z,4.80
2018-09-27T03:40:00.382Z,4.70
2018-09-27T03:42:28.761Z,4.60
2018-09-27T03:44:57.288Z,4.83
2018-09-27T03:47:25.795Z,4.50
2018-09-27T03:49:54.239Z,4.40
2018-09-27T03:52:23.067Z,4.87
2018-09-27T03:54:51.417Z,4.70
2018-09-27T03:57:19.792Z,5.10
2018-09-27T03:59:48.375Z,5.20
2018-09-27T04:02:16.822Z,5.37
2018-09-27T04:04:45.376Z,5.13
2018-09-27T04:07:13.893Z,5.37
2018-09-27T04:09:42.377Z,4.90
2018-09-27T04:12:10.836Z,4.57
2018-09-27T04:14:39.656Z,4.93
2018-09-27T04:17:08.110Z,5.07
2018-09-27T04:19:36.676Z,5.03
2018-09-27T04:22:05.048Z,5.77
2018-09-27T04:24:33.412Z,4.80
2018-09-27T04:27:02.283Z,5.40
2018-09-27T04:29:30.808Z,5.47
2018-09-27T04:31:59.225Z,4.93
2018-09-27T04:34:27.739Z,4.87
2018-09-27T04:36:56.126Z,5.10
2018-09-27T04:39:24.530Z,5.07
2018-09-27T04:41:53.844Z,5.40
2018-09-27T04:44:22.322Z,5.73
2018-09-27T04:46:50.814Z,5.60
2018-09-27T04:49:19.192Z,5.10
2018-09-27T04:51:47.630Z,4.97
2018-09-27T04:54:15.903Z,5.23
2018-09-27T04:56:44.542Z,5.67
2018-09-27T04:59:14.000Z,5.67
2018-09-27T05:01:42.348Z,5.93
2018-09-27T05:04:10.793Z,5.90
2018-09-27T05:06:39.347Z,5.83
2018-09-27T05:09:08.304Z,5.30
2018-09-27T05:11:36.992Z,5.33
2018-09-27T05:14:05.414Z,5.13
2018-09-27T05:16:33.768Z,5.87
2018-09-27T05:19:02.264Z,5.30
2018-09-27T05:21:30.782Z,5.43
2018-09-27T05:23:59.255Z,5.20
2018-09-27T05:26:27.768Z,5.00
2018-09-27T05:28:56.189Z,6.03
2018-09-27T05:31:25.572Z,5.80
2018-09-27T05:33:54.012Z,5.97
2018-09-27T05:36:22.405Z,6.03
2018-09-27T05:38:50.829Z,5.50
2018-09-27T05:41:20.256Z,6.30
2018-09-27T05:43:48.680Z,5.90
2018-09-27T05:46:17.053Z,6.13
2018-09-27T05:48:47.516Z,5.70
2018-09-27T05:51:15.894Z,5.97
2018-09-27T05:53:44.214Z,6.40
2018-09-27T05:56:12.645Z,6.43
2018-09-27T05:58:41.205Z,7.43
2018-09-27T06:01:09.490Z,6.40
2018-09-27T06:03:37.905Z,7.00
2018-09-27T06:06:06.204Z,6.20
2018-09-27T06:08:34.484Z,6.37
2018-09-27T06:11:02.911Z,6.90
2018-09-27T06:13:31.207Z,5.90
2018-09-27T06:15:59.515Z,6.57
2018-09-27T06:18:27.803Z,6.00
2018-09-27T06:20:56.088Z,6.20
2018-09-27T06:23:24.382Z,5.70
2018-09-27T06:25:52.722Z,5.77
2018-09-27T06:28:20.984Z,6.70
2018-09-27T06:30:49.241Z,5.83
2018-09-27T06:33:17.569Z,6.13
2018-09-27T06:35:45.875Z,6.30
2018-09-27T06:38:14.175Z,6.67
2018-09-27T06:40:42.494Z,7.07
2018-09-27T06:43:10.802Z,6.43
2018-09-27T06:45:39.111Z,6.57
2018-09-27T06:48:07.380Z,7.10
2018-09-27T06:50:35.802Z,7.20
2018-09-27T06:53:04.024Z,7.10
2018-09-27T06:55:32.511Z,6.53
2018-09-27T06:58:00.680Z,6.80
2018-09-27T07:00:29.028Z,6.63
2018-09-27T07:02:57.317Z,6.90
2018-09-27T07:05:25.621Z,6.67
2018-09-27T07:07:53.907Z,6.97
2018-09-27T07:10:22.223Z,6.13
2018-09-27T07:12:50.599Z,7.00
2018-09-27T07:15:18.849Z,7.30
2018-09-27T07:17:47.159Z,6.70
2018-09-27T07:20:15.476Z,6.00
2018-09-27T07:22:43.769Z,6.53
2018-09-27T07:25:12.088Z,6.43
2018-09-27T07:27:40.352Z,6.20
2018-09-27T07:30:08.673Z,6.57
2018-09-27T07:32:37.315Z,7.20
2018-09-27T07:35:05.583Z,6.63
2018-09-27T07:37:33.902Z,7.20
2018-09-27T07:40:02.184Z,7.03
2018-09-27T07:42:30.484Z,7.80
2018-09-27T07:44:58.800Z,7.80
2018-09-27T07:47:27.105Z,7.57
2018-09-27T07:49:55.412Z,7.20
2018-09-27T07:52:23.731Z,5.93
2018-09-27T07:54:52.082Z,6.67
2018-09-27T07:57:20.400Z,6.03
2018-09-27T07:59:48.724Z,6.13
2018-09-27T08:02:17.061Z,6.17
2018-09-27T08:04:45.347Z,5.97
2018-09-27T08:07:13.656Z,6.87
2018-09-27T08:09:42.060Z,6.53
2018-09-27T08:12:10.364Z,6.97
2018-09-27T08:14:38.727Z,6.37
2018-09-27T08:17:06.998Z,6.60
2018-09-27T08:19:35.403Z,7.13
2018-09-27T08:22:03.754Z,6.87
2018-09-27T08:24:32.032Z,7.10
2018-09-27T08:27:00.327Z,6.97
2018-09-27T08:29:28.620Z,6.83
2018-09-27T08:31:56.996Z,6.83
2018-09-27T08:34:25.297Z,7.43
2018-09-27T08:36:53.599Z,7.13
2018-09-27T08:39:21.893Z,6.97
2018-09-27T08:41:50.224Z,7.13
2018-09-27T08:44:18.527Z,7.30
2018-09-27T08:46:46.817Z,7.87
2018-09-27T08:49:15.112Z,7.70
2018-09-27T08:51:43.508Z,7.77
2018-09-27T08:54:11.813Z,7.30
2018-09-27T08:56:40.155Z,7.70
2018-09-27T08:59:08.531Z,8.40
2018-09-27T09:01:37.193Z,6.87
2018-09-27T09:04:05.533Z,7.90
2018-09-27T09:06:33.959Z,7.33
2018-09-27T09:09:02.277Z,7.87
2018-09-27T09:11:30.640Z,8.40
2018-09-27T09:13:59.049Z,7.77
2018-09-27T09:16:27.401Z,8.83
2018-09-27T09:18:55.792Z,8.37
2018-09-27T09:21:25.106Z,8.70
2018-09-27T09:23:53.508Z,9.90
2018-09-27T09:26:21.874Z,9.90
2018-09-27T09:28:50.264Z,8.57
2018-09-27T09:31:18.596Z,8.47
2018-09-27T09:33:47.018Z,9.47
2018-09-27T09:36:15.365Z,9.67
2018-09-27T09:38:43.775Z,10.43
2018-09-27T09:41:12.130Z,11.77
2018-09-27T09:43:40.472Z,10.97
2018-09-27T09:46:08.904Z,11.80
2018-09-27T09:48:37.380Z,12.40
2018-09-27T09:51:05.681Z,12.00
2018-09-27T09:53:34.003Z,11.67
2018-09-27T09:56:02.445Z,12.50
2018-09-27T09:58:30.741Z,13.27
2018-09-27T10:00:59.044Z,12.63
2018-09-27T10:03:27.356Z,13.27
2018-09-27T10:05:55.697Z,13.63
2018-09-27T10:08:23.994Z,15.13
2018-09-27T10:10:52.320Z,13.93
2018-09-27T10:13:20.598Z,13.60
2018-09-27T10:15:49.068Z,14.07
2018-09-27T10:18:17.473Z,12.90
2018-09-27T10:20:45.767Z,12.70
2018-09-27T10:23:14.101Z,12.30
2018-09-27T10:25:42.389Z,10.90
2018-09-27T10:28:10.740Z,12.23
2018-09-27T10:30:39.026Z,12.03
2018-09-27T10:33:07.365Z,12.53
2018-09-27T10:35:35.748Z,11.87
2018-09-27T10:38:04.247Z,11.70
2018-09-27T10:40:32.683Z,12.43
2018-09-27T10:43:01.073Z,13.57
2018-09-27T10:45:29.478Z,13.60
2018-09-27T10:47:57.914Z,13.10
2018-09-27T10:50:28.360Z,12.70
2018-09-27T10:52:56.727Z,12.33
2018-09-27T10:55:25.139Z,12.93
2018-09-27T10:57:53.685Z,13.27
2018-09-27T11:00:23.911Z,11.67
2018-09-27T11:02:53.076Z,12.33
2018-09-27T11:05:21.564Z,11.60
2018-09-27T11:07:50.309Z,10.70
2018-09-27T11:10:19.657Z,12.50
2018-09-27T11:12:47.961Z,11.43
2018-09-27T11:15:17.273Z,11.53
2018-09-27T11:17:45.584Z,12.20
2018-09-27T11:20:13.897Z,12.77
2018-09-27T11:22:42.155Z,11.13
2018-09-27T11:25:10.549Z,11.33
2018-09-27T11:27:38.885Z,12.03
2018-09-27T11:30:12.455Z,10.87
2018-09-27T11:32:41.085Z,12.63
2018-09-27T11:35:09.522Z,12.90
2018-09-27T11:37:37.948Z,12.90
2018-09-27T11:40:07.256Z,12.40
2018-09-27T11:42:35.603Z,12.87
2018-09-27T11:45:04.097Z,12.63
2018-09-27T11:47:32.668Z,11.53
2018-09-27T11:50:01.083Z,11.47
2018-09-27T11:52:29.348Z,12.00
2018-09-27T11:54:57.709Z,11.47
2018-09-27T11:57:26.081Z,11.90
2018-09-27T11:59:54.896Z,11.63
2018-09-27T12:02:23.323Z,11.80
2018-09-27T12:04:51.952Z,10.93
2018-09-27T12:07:20.604Z,10.33
2018-09-27T12:09:49.047Z,9.43
2018-09-27T12:12:19.080Z,8.43
2018-09-27T12:14:47.545Z,9.17
2018-09-27T12:17:17.437Z,9.40
2018-09-27T12:19:45.948Z,9.97
2018-09-27T12:22:14.368Z,9.60
2018-09-27T12:24:42.731Z,8.13
2018-09-27T12:27:11.014Z,8.33
2018-09-27T12:29:39.453Z,8.93
2018-09-27T12:32:07.792Z,8.60
2018-09-27T12:34:36.225Z,8.10
2018-09-27T12:37:04.671Z,9.00
2018-09-27T12:39:33.176Z,8.83
2018-09-27T12:42:01.857Z,8.30
2018-09-27T12:44:30.043Z,8.63
2018-09-27T12:46:58.436Z,7.70
2018-09-27T12:49:27.005Z,7.30
2018-09-27T12:51:55.592Z,7.60
2018-09-27T12:54:23.750Z,6.60
2018-09-27T12:56:52.117Z,7.77
2018-09-27T12:59:20.515Z,8.90
2018-09-27T13:01:49.005Z,6.83
2018-09-27T13:04:18.221Z,6.33
2018-09-27T13:06:46.655Z,6.10
2018-09-27T13:09:15.189Z,6.93
2018-09-27T13:11:44.066Z,6.83
2018-09-27T13:14:12.622Z,6.07
2018-09-27T13:16:40.953Z,6.03
2018-09-27T13:19:09.352Z,6.40
2018-09-27T13:21:37.690Z,6.73
2018-09-27T13:24:06.094Z,6.10
2018-09-27T13:26:34.421Z,5.53
2018-09-27T13:29:03.647Z,9.07
2018-09-27T13:31:31.972Z,6.20
2018-09-27T13:34:00.310Z,6.20
2018-09-27T13:36:28.762Z,5.90
2018-09-27T13:38:57.455Z,6.10
2018-09-27T13:41:26.124Z,5.63
2018-09-27T13:43:54.634Z,5.43
2018-09-27T13:46:22.931Z,4.67
2018-09-27T13:48:51.233Z,5.37
2018-09-27T13:51:19.600Z,5.23
2018-09-27T13:53:47.923Z,5.53
2018-09-27T13:56:16.209Z,5.40
2018-09-27T13:58:44.505Z,5.50
2018-09-27T14:01:12.809Z,5.30
2018-09-27T14:03:41.089Z,5.33
2018-09-27T14:06:09.388Z,5.20
2018-09-27T14:08:38.204Z,4.83
2018-09-27T14:11:06.608Z,5.20
2018-09-27T14:13:35.034Z,4.80
2018-09-27T14:16:03.357Z,5.13
2018-09-27T14:18:45.848Z,5.40
2018-09-27T14:21:14.203Z,4.90
2018-09-27T14:23:42.568Z,5.07
2018-09-27T14:26:10.904Z,4.87
2018-09-27T14:28:39.234Z,5.17
2018-09-27T14:31:07.999Z,4.47
2018-09-27T14:33:36.846Z,4.30
2018-09-27T14:36:05.204Z,4.47
2018-09-27T14:38:33.577Z,5.03
2018-09-27T14:41:01.962Z,5.37
2018-09-27T14:43:30.211Z,4.90
2018-09-27T14:45:58.541Z,4.63
2018-09-27T14:48:26.869Z,4.93
2018-09-27T14:50:55.235Z,4.40
2018-09-27T14:53:23.574Z,4.10
2018-09-27T14:55:51.901Z,4.00
2018-09-27T14:58:20.212Z,4.40
2018-09-27T15:00:48.549Z,3.80
2018-09-27T15:03:17.081Z,4.07
2018-09-27T15:05:45.445Z,3.33
2018-09-27T15:08:13.864Z,3.07
2018-09-27T15:10:42.324Z,3.03
2018-09-27T15:13:10.676Z,3.30
2018-09-27T15:15:39.088Z,2.60
2018-09-27T15:18:09.556Z,2.63
2018-09-27T15:20:37.997Z,2.97
2018-09-27T15:23:12.233Z,2.53
2018-09-27T15:25:40.596Z,2.50
2018-09-27T15:28:08.961Z,2.47
2018-09-27T15:30:37.380Z,2.43
2018-09-27T15:33:05.692Z,2.30
2018-09-27T15:35:34.292Z,2.67
2018-09-27T15:38:02.630Z,2.47
2018-09-27T15:40:30.968Z,2.10
2018-09-27T15:42:59.265Z,2.20
2018-09-27T15:45:27.564Z,1.87
2018-09-27T15:47:55.872Z,1.87
2018-09-27T15:50:24.178Z,1.87
2018-09-27T15:52:52.544Z,2.03
2018-09-27T15:55:20.876Z,2.10
2018-09-27T15:57:49.284Z,1.77
2018-09-27T16:00:17.732Z,1.90
2018-09-27T16:02:46.081Z,2.03
2018-09-27T16:05:14.425Z,1.93
2018-09-27T16:07:42.734Z,1.90
2018-09-27T16:10:11.052Z,2.10
2018-09-27T16:12:39.470Z,2.70
2018-09-27T16:15:07.839Z,2.53
2018-09-27T16:17:36.269Z,2.50
2018-09-27T16:20:04.593Z,2.33
2018-09-27T16:22:32.985Z,2.70
2018-09-27T16:25:01.370Z,2.67
2018-09-27T16:27:31.757Z,2.70
2018-09-27T16:30:00.172Z,2.53
2018-09-27T16:32:28.630Z,2.67
2018-09-27T16:34:57.025Z,2.60
2018-09-27T16:37:25.441Z,3.70
2018-09-27T16:39:53.801Z,3.80
2018-09-27T16:42:22.160Z,4.00
2018-09-27T16:44:50.540Z,3.60
2018-09-27T16:47:18.934Z,3.03
2018-09-27T16:49:48.290Z,2.40
2018-09-27T16:52:17.916Z,2.33
2018-09-27T16:54:46.366Z,2.20
2018-09-27T16:57:14.797Z,1.90
2018-09-27T16:59:43.362Z,3.43
2018-09-27T17:02:11.781Z,3.10
2018-09-27T17:04:40.165Z,2.57
2018-09-27T17:07:08.632Z,2.43
2018-09-27T17:09:37.059Z,2.50
2018-09-27T17:12:05.683Z,2.30
2018-09-27T17:14:34.307Z,2.40
2018-09-27T17:17:02.840Z,2.50
2018-09-27T17:19:31.257Z,2.97
2018-09-27T17:21:59.594Z,4.00
2018-09-27T17:24:27.998Z,4.33
2018-09-27T17:26:56.324Z,3.57
2018-09-27T17:29:24.766Z,6.83
2018-09-27T17:31:53.164Z,6.23
2018-09-27T17:34:21.512Z,4.80
2018-09-27T17:36:50.016Z,3.77
2018-09-27T17:39:18.377Z,3.80
2018-09-27T17:41:46.717Z,4.30
